createdAt,value
2019-01-24T00:00:00.708Z,0
2019-01-24T00:01:00.633Z,0
2019-01-24T00:02:00.618Z,0
2019-01-24T00:03:02.218Z,0
2019-01-24T00:04:00.718Z,0
2019-01-24T00:05:00.722Z,0
2019-01-24T00:06:00.658Z,0
2019-01-24T00:07:00.612Z,0
2019-01-24T00:08:00.729Z,0
2019-01-24T00:09:01.720Z,0
2019-01-24T00:10:00.683Z,0
2019-01-24T00:11:00.803Z,0
2019-01-24T00:12:00.773Z,0
2019-01-24T00:13:00.648Z,0
2019-01-24T00:14:00.748Z,0
2019-01-24T00:15:01.099Z,0
2019-01-24T00:16:00.795Z,0
2019-01-24T00:17:00.699Z,0
2019-01-24T00:18:00.736Z,0
2019-01-24T00:19:00.742Z,0
2019-01-24T00:20:00.719Z,0
2019-01-24T00:21:00.687Z,0
2019-01-24T00:22:03.804Z,0
2019-01-24T00:23:00.901Z,0
2019-01-24T00:24:00.748Z,0
2019-01-24T00:25:00.744Z,0
2019-01-24T00:26:03.043Z,0
2019-01-24T00:27:00.704Z,0
2019-01-24T00:28:00.776Z,0
2019-01-24T00:29:00.651Z,0
2019-01-24T00:30:00.754Z,0
2019-01-24T00:31:00.726Z,0
2019-01-24T00:32:00.992Z,0
2019-01-24T00:33:00.599Z,0
2019-01-24T00:34:00.643Z,0
2019-01-24T00:35:00.672Z,0
2019-01-24T00:36:01.107Z,0
2019-01-24T00:37:00.717Z,0
2019-01-24T00:38:00.632Z,0
2019-01-24T00:39:00.747Z,0
2019-01-24T00:40:00.662Z,0
2019-01-24T00:41:00.785Z,0
2019-01-24T00:42:00.733Z,0
2019-01-24T00:43:00.653Z,0
2019-01-24T00:44:01.182Z,0
2019-01-24T00:45:00.739Z,0
2019-01-24T00:46:00.696Z,0
2019-01-24T00:47:00.694Z,0
2019-01-24T00:48:00.749Z,0
2019-01-24T00:49:00.743Z,0
2019-01-24T00:50:01.160Z,0
2019-01-24T00:51:00.723Z,0
2019-01-24T00:52:00.799Z,0
2019-01-24T00:53:00.691Z,0
2019-01-24T00:54:00.773Z,0
2019-01-24T00:55:00.703Z,0
2019-01-24T00:56:01.068Z,0
2019-01-24T00:57:00.771Z,0
2019-01-24T00:58:00.909Z,0
2019-01-24T00:59:00.746Z,0
2019-01-24T01:00:00.778Z,0
2019-01-24T01:01:00.713Z,0
2019-01-24T01:02:02.184Z,0
2019-01-24T01:03:00.714Z,0
2019-01-24T01:04:00.810Z,0
2019-01-24T01:05:00.740Z,0
2019-01-24T01:06:00.787Z,0
2019-01-24T01:07:00.829Z,0
2019-01-24T01:08:01.143Z,0
2019-01-24T01:09:00.745Z,0
2019-01-24T01:10:00.771Z,0
2019-01-24T01:11:00.854Z,0
2019-01-24T01:12:00.754Z,0
2019-01-24T01:13:00.720Z,0
2019-01-24T01:14:01.105Z,0
2019-01-24T01:15:00.763Z,0
2019-01-24T01:16:00.782Z,0
2019-01-24T01:17:00.766Z,0
2019-01-24T01:18:00.760Z,0
2019-01-24T01:19:00.799Z,0
2019-01-24T01:20:01.124Z,0
2019-01-24T01:21:00.740Z,0
2019-01-24T01:22:00.802Z,0
2019-01-24T01:23:00.726Z,0
2019-01-24T01:24:00.834Z,0
2019-01-24T01:25:00.904Z,0
2019-01-24T01:26:01.184Z,0
2019-01-24T01:27:00.752Z,0
2019-01-24T01:28:00.998Z,0
2019-01-24T01:29:00.798Z,0
2019-01-24T01:30:00.798Z,0
2019-01-24T01:31:00.820Z,0
2019-01-24T01:32:01.344Z,0
2019-01-24T01:33:00.852Z,0
2019-01-24T01:34:00.745Z,0
2019-01-24T01:35:00.872Z,0
2019-01-24T01:36:00.791Z,0
2019-01-24T01:37:00.848Z,0
2019-01-24T01:38:01.121Z,0
2019-01-24T01:39:00.823Z,0
2019-01-24T01:40:00.766Z,0
2019-01-24T01:41:00.780Z,0
2019-01-24T01:42:00.784Z,0
2019-01-24T01:43:00.784Z,0
2019-01-24T01:44:01.236Z,0
2019-01-24T01:45:01.115Z,0
2019-01-24T01:46:00.912Z,0
2019-01-24T01:47:00.851Z,0
2019-01-24T01:48:00.828Z,0
2019-01-24T01:49:00.897Z,0
2019-01-24T01:50:01.169Z,0
2019-01-24T01:51:00.811Z,0
2019-01-24T01:52:00.835Z,0
2019-01-24T01:53:01.852Z,0
2019-01-24T01:54:00.757Z,0
2019-01-24T01:55:00.902Z,0
2019-01-24T01:56:02.439Z,0
2019-01-24T01:57:00.916Z,0
2019-01-24T01:58:00.987Z,0
2019-01-24T01:59:00.902Z,0
2019-01-24T02:00:02.301Z,0
2019-01-24T02:01:00.941Z,0
2019-01-24T02:02:02.246Z,0
2019-01-24T02:03:01.095Z,0
2019-01-24T02:04:00.946Z,0
2019-01-24T02:05:00.876Z,0
2019-01-24T02:06:00.908Z,0
2019-01-24T02:07:00.924Z,0
2019-01-24T02:08:01.275Z,0
2019-01-24T02:09:00.825Z,0
2019-01-24T02:10:00.838Z,0
2019-01-24T02:11:00.816Z,0
2019-01-24T02:12:00.913Z,0
2019-01-24T02:13:00.850Z,0
2019-01-24T02:14:01.179Z,0
2019-01-24T02:15:00.852Z,0
2019-01-24T02:16:00.871Z,0
2019-01-24T02:17:00.806Z,0
2019-01-24T02:18:00.783Z,0
2019-01-24T02:19:00.817Z,0
2019-01-24T02:20:01.149Z,0
2019-01-24T02:21:00.872Z,0
2019-01-24T02:22:00.929Z,0
2019-01-24T02:23:00.966Z,0
2019-01-24T02:24:00.840Z,0
2019-01-24T02:25:00.935Z,0
2019-01-24T02:26:01.234Z,0
2019-01-24T02:27:00.802Z,0
2019-01-24T02:28:00.971Z,0
2019-01-24T02:29:00.802Z,0
2019-01-24T02:30:00.912Z,0
2019-01-24T02:31:00.867Z,0
2019-01-24T02:32:01.233Z,0
2019-01-24T02:33:00.840Z,0
2019-01-24T02:34:00.875Z,0
2019-01-24T02:35:01.190Z,0
2019-01-24T02:36:00.853Z,0
2019-01-24T02:37:00.812Z,0
2019-01-24T02:38:02.235Z,0
2019-01-24T02:39:00.926Z,0
2019-01-24T02:40:00.795Z,0
2019-01-24T02:41:00.934Z,0
2019-01-24T02:42:00.921Z,0
2019-01-24T02:43:00.891Z,0
2019-01-24T02:44:02.251Z,0
2019-01-24T02:45:00.921Z,0
2019-01-24T02:46:00.850Z,0
2019-01-24T02:47:11.640Z,0
2019-01-24T02:48:02.887Z,0
2019-01-24T02:49:01.020Z,0
2019-01-24T02:50:01.306Z,0
2019-01-24T02:51:00.952Z,0
2019-01-24T02:52:00.867Z,0
2019-01-24T02:53:00.843Z,0
2019-01-24T02:54:01.214Z,0
2019-01-24T02:55:00.845Z,0
2019-01-24T02:56:01.197Z,0
2019-01-24T02:57:00.937Z,0
2019-01-24T02:58:00.958Z,0
2019-01-24T02:59:00.849Z,0
2019-01-24T03:00:00.887Z,0
2019-01-24T03:01:01.096Z,0
2019-01-24T03:02:01.316Z,0
2019-01-24T03:03:00.923Z,0
2019-01-24T03:04:00.886Z,0
2019-01-24T03:05:05.555Z,0
2019-01-24T03:06:00.895Z,0
2019-01-24T03:07:01.008Z,0
2019-01-24T03:08:01.181Z,0
2019-01-24T03:09:01.045Z,0
2019-01-24T03:10:00.983Z,0
2019-01-24T03:11:01.006Z,0
2019-01-24T03:12:00.899Z,0
2019-01-24T03:13:00.947Z,0
2019-01-24T03:14:01.301Z,0
2019-01-24T03:15:00.961Z,0
2019-01-24T03:16:00.911Z,0
2019-01-24T03:17:00.922Z,0
2019-01-24T03:18:00.871Z,0
2019-01-24T03:19:00.911Z,0
2019-01-24T03:20:01.230Z,0
2019-01-24T03:21:00.961Z,0
2019-01-24T03:22:01.007Z,0
2019-01-24T03:23:00.972Z,0
2019-01-24T03:24:01.733Z,0
2019-01-24T03:25:01.361Z,0
2019-01-24T03:26:01.292Z,0
2019-01-24T03:27:00.936Z,0
2019-01-24T03:28:01.008Z,0
2019-01-24T03:29:00.998Z,0
2019-01-24T03:30:01.056Z,0
2019-01-24T03:37:28.076Z,0
2019-01-24T03:37:40.116Z,0
2019-01-24T03:38:40.837Z,0
2019-01-24T03:39:40.047Z,0
2019-01-24T03:40:40.306Z,0
2019-01-24T03:41:40.614Z,0
2019-01-24T03:42:40.252Z,0
2019-01-24T03:43:40.157Z,0
2019-01-24T03:44:40.015Z,0
2019-01-24T03:45:40.271Z,0
2019-01-24T03:46:40.069Z,0
2019-01-24T03:47:40.554Z,0
2019-01-24T03:48:40.083Z,0
2019-01-24T03:49:40.062Z,0
2019-01-24T03:50:40.171Z,0
2019-01-24T03:51:40.272Z,0
2019-01-24T03:52:40.037Z,0
2019-01-24T03:53:40.489Z,0
2019-01-24T03:54:40.112Z,0
2019-01-24T03:55:40.133Z,0
2019-01-24T03:56:40.107Z,0
2019-01-24T03:57:40.323Z,0
2019-01-24T03:58:40.118Z,0
2019-01-24T03:59:42.102Z,0
2019-01-24T04:00:40.193Z,0
2019-01-24T04:01:40.201Z,0
2019-01-24T04:02:41.287Z,0
2019-01-24T04:03:41.626Z,0
2019-01-24T04:04:40.191Z,0
2019-01-24T04:05:40.783Z,0
2019-01-24T04:06:41.595Z,0
2019-01-24T04:07:40.138Z,0
2019-01-24T04:08:40.120Z,0
2019-01-24T04:09:40.122Z,0
2019-01-24T04:10:40.128Z,0
2019-01-24T04:11:41.608Z,0
2019-01-24T04:12:40.174Z,0
2019-01-24T04:13:40.083Z,0
2019-01-24T04:14:40.152Z,0
2019-01-24T04:15:40.121Z,0
2019-01-24T04:16:40.472Z,0
2019-01-24T04:17:40.997Z,0
2019-01-24T04:18:40.117Z,0
2019-01-24T04:19:40.197Z,0
2019-01-24T04:20:40.121Z,0
2019-01-24T04:21:40.363Z,0
2019-01-24T04:22:40.166Z,0
2019-01-24T04:23:40.418Z,0
2019-01-24T04:24:40.199Z,0
2019-01-24T04:25:40.131Z,0
2019-01-24T04:26:40.239Z,0
2019-01-24T04:27:40.145Z,0
2019-01-24T04:28:40.254Z,0
2019-01-24T04:29:40.669Z,0
2019-01-24T04:30:40.238Z,0
2019-01-24T04:31:40.268Z,0
2019-01-24T04:32:40.244Z,0
2019-01-24T04:33:40.210Z,0
2019-01-24T04:34:40.295Z,0
2019-01-24T04:35:40.601Z,0
2019-01-24T04:36:40.636Z,0
2019-01-24T04:37:40.164Z,0
2019-01-24T04:38:40.217Z,0
2019-01-24T04:40:37.668Z,0
2019-01-24T04:41:00.429Z,0
2019-01-24T04:41:50.533Z,0
2019-01-24T04:42:50.541Z,0
2019-01-24T04:43:50.587Z,0
2019-01-24T04:44:50.447Z,0
2019-01-24T04:45:50.456Z,0
2019-01-24T04:46:52.859Z,0
2019-01-24T04:47:50.511Z,0
2019-01-24T04:48:50.620Z,0
2019-01-24T04:49:50.453Z,0
2019-01-24T04:50:50.532Z,0
2019-01-24T04:51:50.489Z,0
2019-01-24T04:52:51.567Z,0
2019-01-24T04:53:50.485Z,0
2019-01-24T04:54:50.410Z,0
2019-01-24T04:55:50.479Z,0
2019-01-24T04:56:50.413Z,0
2019-01-24T04:57:50.575Z,0
2019-01-24T04:59:17.238Z,0
2019-01-24T04:59:50.622Z,0
2019-01-24T05:00:50.678Z,0
2019-01-24T05:01:50.501Z,0
2019-01-24T05:02:50.385Z,0
2019-01-24T05:03:50.554Z,0
2019-01-24T05:04:50.864Z,0
2019-01-24T05:05:50.468Z,0
2019-01-24T05:06:50.429Z,0
2019-01-24T05:07:50.497Z,0
2019-01-24T05:08:50.480Z,0
2019-01-24T05:09:51.340Z,0
2019-01-24T05:10:50.835Z,0
2019-01-24T05:11:50.565Z,0
2019-01-24T05:12:50.407Z,0
2019-01-24T05:18:07.500Z,0
2019-01-24T05:18:19.469Z,0
2019-01-24T05:19:19.492Z,0
2019-01-24T05:20:19.540Z,0
2019-01-24T05:21:19.478Z,0
2019-01-24T05:22:19.849Z,0
2019-01-24T05:23:19.908Z,0
2019-01-24T05:24:19.563Z,0
2019-01-24T05:25:19.531Z,0
2019-01-24T05:26:40.166Z,0
2019-01-24T05:27:19.618Z,0
2019-01-24T05:28:23.138Z,0
2019-01-24T05:29:19.559Z,0
2019-01-24T05:30:19.446Z,0
2019-01-24T05:31:19.568Z,0
2019-01-24T05:36:36.267Z,0
2019-01-24T05:36:48.235Z,0
2019-01-24T05:37:48.312Z,0
2019-01-24T05:38:48.436Z,0
2019-01-24T05:39:48.252Z,0
2019-01-24T05:40:48.257Z,0
2019-01-24T05:41:48.357Z,0
2019-01-24T05:42:49.648Z,0
2019-01-24T05:43:48.292Z,0
2019-01-24T05:44:48.219Z,0
2019-01-24T05:45:48.282Z,0
2019-01-24T05:46:48.429Z,0
2019-01-24T05:47:48.310Z,0
2019-01-24T05:48:48.642Z,0
2019-01-24T05:49:48.274Z,0
2019-01-24T05:50:48.416Z,0
2019-01-24T05:51:48.409Z,0
2019-01-24T05:52:48.316Z,0
2019-01-24T05:53:48.230Z,0
2019-01-24T05:54:48.635Z,0
2019-01-24T05:55:48.285Z,0
2019-01-24T05:56:48.447Z,0
2019-01-24T05:57:48.372Z,0
2019-01-24T05:58:48.348Z,0
2019-01-24T05:59:56.417Z,0
2019-01-24T06:01:03.544Z,0
2019-01-24T06:01:48.322Z,0
2019-01-24T06:02:49.839Z,0
2019-01-24T06:03:48.298Z,0
2019-01-24T06:04:48.292Z,0
2019-01-24T06:05:53.000Z,0
2019-01-24T06:06:48.677Z,0
2019-01-24T06:07:48.309Z,0
2019-01-24T06:08:48.287Z,0
2019-01-24T06:09:48.654Z,0
2019-01-24T06:10:48.502Z,0
2019-01-24T06:11:48.362Z,0
2019-01-24T06:12:48.703Z,0
2019-01-24T06:13:48.535Z,0
2019-01-24T06:14:48.358Z,0
2019-01-24T06:15:48.373Z,0
2019-01-24T06:16:48.296Z,0
2019-01-24T06:17:48.955Z,0
2019-01-24T06:18:48.961Z,0
2019-01-24T06:19:48.290Z,0
2019-01-24T06:20:48.449Z,0
2019-01-24T06:21:48.292Z,0
2019-01-24T06:22:48.315Z,0
2019-01-24T06:23:48.309Z,0
2019-01-24T06:24:49.716Z,0
2019-01-24T06:25:48.595Z,0
2019-01-24T06:26:48.431Z,0
2019-01-24T06:27:48.289Z,0
2019-01-24T06:28:48.376Z,0
2019-01-24T06:29:48.454Z,0
2019-01-24T06:30:49.826Z,0
2019-01-24T06:31:48.362Z,0
2019-01-24T06:32:48.413Z,0
2019-01-24T06:33:48.376Z,0
2019-01-24T06:34:48.577Z,0
2019-01-24T06:35:54.418Z,0
2019-01-24T06:36:48.879Z,0
2019-01-24T06:37:48.475Z,0
2019-01-24T06:38:48.510Z,0
2019-01-24T06:39:48.677Z,0
2019-01-24T06:40:48.358Z,0
2019-01-24T06:41:48.498Z,0
2019-01-24T06:42:48.963Z,0
2019-01-24T06:43:48.762Z,0
2019-01-24T06:44:48.550Z,0
2019-01-24T06:45:48.561Z,0
2019-01-24T06:46:48.401Z,0
2019-01-24T06:47:48.386Z,0
2019-01-24T06:48:50.833Z,0
2019-01-24T06:49:48.408Z,0
2019-01-24T06:50:48.394Z,0
2019-01-24T06:51:48.523Z,0
2019-01-24T06:52:48.571Z,0
2019-01-24T06:53:48.480Z,0
2019-01-24T06:54:49.870Z,0
2019-01-24T06:55:48.390Z,0
2019-01-24T06:56:48.406Z,0
2019-01-24T06:57:49.866Z,0
2019-01-24T06:58:48.512Z,0
2019-01-24T06:59:48.479Z,0
2019-01-24T07:00:48.800Z,0
2019-01-24T07:01:48.530Z,0
2019-01-24T07:02:48.888Z,0
2019-01-24T07:03:48.678Z,0
2019-01-24T07:04:48.433Z,0
2019-01-24T07:05:55.105Z,0
2019-01-24T07:06:57.612Z,0
2019-01-24T07:07:49.212Z,0
2019-01-24T07:08:48.477Z,0
2019-01-24T07:09:48.638Z,0
2019-01-24T07:10:48.792Z,0
2019-01-24T07:11:48.421Z,0
2019-01-24T07:12:48.805Z,0
2019-01-24T07:13:48.461Z,0
2019-01-24T07:14:48.477Z,0
2019-01-24T07:15:48.342Z,0
2019-01-24T07:16:48.351Z,0
2019-01-24T07:17:48.327Z,0
2019-01-24T07:18:48.691Z,0
2019-01-24T07:19:48.489Z,0
2019-01-24T07:20:48.346Z,0
2019-01-24T07:21:48.400Z,0
2019-01-24T07:22:48.409Z,0
2019-01-24T07:23:48.372Z,0
2019-01-24T07:24:48.812Z,0
2019-01-24T07:25:48.336Z,0
2019-01-24T07:26:48.466Z,0
2019-01-24T07:27:48.370Z,0
2019-01-24T07:28:48.347Z,0
2019-01-24T07:29:48.332Z,0
2019-01-24T07:30:48.677Z,0
2019-01-24T07:31:49.000Z,0
2019-01-24T07:32:48.322Z,0
2019-01-24T07:33:48.462Z,5
2019-01-24T07:34:48.347Z,0
2019-01-24T07:35:48.754Z,5
2019-01-24T07:36:48.689Z,5
2019-01-24T07:37:48.457Z,5
2019-01-24T07:38:48.386Z,5
2019-01-24T07:39:48.343Z,5
2019-01-24T07:40:48.426Z,5
2019-01-24T07:41:48.368Z,5
2019-01-24T07:42:48.734Z,5
2019-01-24T07:43:48.649Z,5
2019-01-24T07:44:48.380Z,5
2019-01-24T07:45:48.490Z,5
2019-01-24T07:46:48.415Z,5
2019-01-24T07:47:48.452Z,5
2019-01-24T07:48:48.797Z,5
2019-01-24T07:49:48.412Z,5
2019-01-24T07:50:48.386Z,5
2019-01-24T07:51:48.405Z,5
2019-01-24T07:52:48.382Z,5
2019-01-24T07:53:48.492Z,5
2019-01-24T07:54:48.823Z,5
2019-01-24T07:55:48.515Z,5
2019-01-24T07:56:48.387Z,5
2019-01-24T07:57:48.511Z,5
2019-01-24T07:58:48.392Z,5
2019-01-24T07:59:48.539Z,5
2019-01-24T08:00:48.772Z,10
2019-01-24T08:01:48.443Z,10
2019-01-24T08:02:48.440Z,10
2019-01-24T08:03:48.457Z,10
2019-01-24T08:04:48.409Z,10
2019-01-24T08:05:49.092Z,10
2019-01-24T08:06:48.816Z,10
2019-01-24T08:07:48.556Z,10
2019-01-24T08:08:48.424Z,10
2019-01-24T08:17:47.952Z,10
2019-01-24T08:18:34.585Z,10
2019-01-24T08:19:34.650Z,10
2019-01-24T08:20:34.526Z,10
2019-01-24T08:21:34.572Z,10
2019-01-24T08:22:34.611Z,10
2019-01-24T08:23:35.013Z,15
2019-01-24T08:24:34.612Z,15
2019-01-24T08:25:34.583Z,15
2019-01-24T08:26:34.661Z,15
2019-01-24T08:27:35.705Z,15
2019-01-24T08:28:34.610Z,15
2019-01-24T08:29:34.909Z,15
2019-01-24T08:37:02.470Z,20
2019-01-24T08:37:15.096Z,20
2019-01-24T08:38:14.935Z,20
2019-01-24T08:39:15.444Z,20
2019-01-24T08:40:15.029Z,20
2019-01-24T08:41:14.874Z,20
2019-01-24T08:42:15.375Z,20
2019-01-24T08:43:14.969Z,20
2019-01-24T08:44:15.060Z,20
2019-01-24T08:45:14.944Z,25
2019-01-24T08:46:15.038Z,25
2019-01-24T08:47:16.427Z,25
2019-01-24T08:48:15.326Z,30
2019-01-24T08:49:14.993Z,30
2019-01-24T08:50:15.014Z,30
2019-01-24T08:51:14.992Z,30
2019-01-24T08:52:15.022Z,30
2019-01-24T08:53:15.221Z,30
2019-01-24T08:54:15.341Z,30
2019-01-24T08:55:14.989Z,30
2019-01-24T08:56:14.993Z,30
2019-01-24T08:57:15.470Z,30
2019-01-24T08:58:15.616Z,30
2019-01-24T08:59:14.980Z,30
2019-01-24T09:00:16.263Z,30
2019-01-24T09:01:14.948Z,30
2019-01-24T09:02:14.961Z,30
2019-01-24T09:03:15.487Z,35
2019-01-24T09:04:15.036Z,35
2019-01-24T09:05:15.056Z,35
2019-01-24T09:06:15.307Z,35
2019-01-24T09:07:14.963Z,35
2019-01-24T09:08:15.150Z,30
2019-01-24T09:09:14.988Z,30
2019-01-24T09:10:15.049Z,30
2019-01-24T09:11:15.210Z,30
2019-01-24T09:12:15.369Z,30
2019-01-24T09:13:14.983Z,25
2019-01-24T09:14:15.036Z,25
2019-01-24T09:15:15.044Z,25
2019-01-24T09:16:14.965Z,25
2019-01-24T09:17:15.148Z,20
2019-01-24T09:18:19.720Z,20
2019-01-24T09:25:42.680Z,25
2019-01-24T09:25:55.235Z,25
2019-01-24T09:26:55.209Z,25
2019-01-24T09:27:55.129Z,25
2019-01-24T09:28:55.128Z,25
2019-01-24T09:29:55.240Z,25
2019-01-24T09:31:02.629Z,25
2019-01-24T09:31:55.300Z,25
2019-01-24T09:32:55.205Z,25
2019-01-24T09:33:55.215Z,25
2019-01-24T09:34:55.158Z,25
2019-01-24T09:35:55.198Z,25
2019-01-24T09:36:55.536Z,25
2019-01-24T09:37:55.281Z,25
2019-01-24T09:38:55.356Z,25
2019-01-24T09:39:55.314Z,25
2019-01-24T09:40:55.327Z,25
2019-01-24T09:41:55.468Z,25
2019-01-24T09:42:59.499Z,30
2019-01-24T09:43:55.553Z,25
2019-01-24T09:44:55.216Z,25
2019-01-24T09:45:55.305Z,25
2019-01-24T09:46:55.235Z,25
2019-01-24T09:47:55.258Z,25
2019-01-24T09:48:55.799Z,25
2019-01-24T09:49:55.269Z,25
2019-01-24T09:50:55.160Z,30
2019-01-24T09:51:55.255Z,30
2019-01-24T09:52:55.145Z,30
2019-01-24T09:53:55.744Z,30
2019-01-24T09:54:55.654Z,30
2019-01-24T09:55:55.212Z,30
2019-01-24T09:56:55.237Z,30
2019-01-24T09:57:55.260Z,30
2019-01-24T09:58:55.164Z,30
2019-01-24T09:59:55.220Z,30
2019-01-24T10:00:55.467Z,25
2019-01-24T10:01:55.183Z,25
2019-01-24T10:02:55.302Z,25
2019-01-24T10:03:55.234Z,25
2019-01-24T10:04:55.200Z,30
2019-01-24T10:05:55.327Z,30
2019-01-24T10:07:02.269Z,30
2019-01-24T10:07:55.288Z,30
2019-01-24T10:08:55.164Z,30
2019-01-24T10:09:57.015Z,30
2019-01-24T10:10:55.239Z,35
2019-01-24T10:11:55.397Z,40
2019-01-24T10:13:01.646Z,40
2019-01-24T10:13:55.242Z,35
2019-01-24T10:14:55.236Z,35
2019-01-24T10:15:55.281Z,35
2019-01-24T10:16:55.226Z,40
2019-01-24T10:17:55.292Z,35
2019-01-24T10:19:58.697Z,40
2019-01-24T10:20:55.179Z,40
2019-01-24T10:21:55.259Z,40
2019-01-24T10:22:55.232Z,40
2019-01-24T10:23:55.397Z,40
2019-01-24T10:24:55.237Z,40
2019-01-24T10:25:55.389Z,40
2019-01-24T10:26:55.316Z,40
2019-01-24T10:27:55.319Z,40
2019-01-24T10:33:12.248Z,40
2019-01-24T10:33:24.756Z,35
2019-01-24T10:34:24.631Z,35
2019-01-24T10:35:24.809Z,35
2019-01-24T10:36:24.810Z,35
2019-01-24T10:37:26.040Z,35
2019-01-24T10:38:24.686Z,30
2019-01-24T10:39:24.788Z,30
2019-01-24T10:40:24.768Z,30
2019-01-24T10:41:24.732Z,35
2019-01-24T10:42:25.308Z,35
2019-01-24T10:43:26.047Z,35
2019-01-24T10:44:25.814Z,35
2019-01-24T10:45:25.372Z,35
2019-01-24T10:46:25.624Z,35
2019-01-24T10:47:25.372Z,40
2019-01-24T10:48:27.401Z,40
2019-01-24T10:49:25.591Z,40
2019-01-24T10:50:25.190Z,35
2019-01-24T10:51:24.760Z,35
2019-01-24T10:52:25.002Z,35
2019-01-24T10:53:25.089Z,35
2019-01-24T10:54:24.956Z,35
2019-01-24T10:55:26.013Z,40
2019-01-24T10:56:24.738Z,40
2019-01-24T10:57:26.576Z,40
2019-01-24T10:58:24.932Z,40
2019-01-24T10:59:24.809Z,40
2019-01-24T11:00:24.757Z,40
2019-01-24T11:01:25.063Z,40
2019-01-24T11:02:24.729Z,40
2019-01-24T11:03:24.885Z,40
2019-01-24T11:04:24.823Z,40
2019-01-24T11:05:24.746Z,40
2019-01-24T11:06:24.700Z,40
2019-01-24T11:07:26.133Z,40
2019-01-24T11:08:24.862Z,40
2019-01-24T11:09:24.729Z,40
2019-01-24T11:10:25.091Z,40
2019-01-24T11:11:24.819Z,40
2019-01-24T11:12:24.740Z,35
2019-01-24T11:13:26.212Z,35
2019-01-24T11:14:24.898Z,40
2019-01-24T11:15:24.855Z,40
2019-01-24T11:16:24.830Z,40
2019-01-24T11:17:24.834Z,40
2019-01-24T11:18:24.851Z,40
2019-01-24T11:19:26.227Z,40
2019-01-24T11:20:24.920Z,40
2019-01-24T11:21:24.852Z,40
2019-01-24T11:22:24.728Z,40
2019-01-24T11:23:24.822Z,40
2019-01-24T11:24:24.856Z,40
2019-01-24T11:25:25.187Z,40
2019-01-24T11:26:25.396Z,35
2019-01-24T11:27:24.812Z,35
2019-01-24T11:28:24.966Z,35
2019-01-24T11:29:24.779Z,35
2019-01-24T11:30:24.819Z,35
2019-01-24T11:31:25.200Z,35
2019-01-24T11:32:24.794Z,35
2019-01-24T11:33:24.845Z,35
2019-01-24T11:34:24.875Z,35
2019-01-24T11:35:24.948Z,35
2019-01-24T11:36:24.828Z,35
2019-01-24T11:37:27.183Z,35
2019-01-24T11:38:24.854Z,35
2019-01-24T11:39:24.782Z,35
2019-01-24T11:40:29.558Z,30
2019-01-24T11:41:24.894Z,30
2019-01-24T11:42:24.780Z,30
2019-01-24T11:43:25.244Z,30
2019-01-24T11:44:24.876Z,30
2019-01-24T11:45:25.711Z,30
2019-01-24T11:46:24.801Z,30
2019-01-24T11:47:24.827Z,30
2019-01-24T11:48:24.843Z,30
2019-01-24T11:49:26.228Z,30
2019-01-24T11:50:24.824Z,25
2019-01-24T11:51:24.833Z,25
2019-01-24T11:52:26.264Z,25
2019-01-24T11:53:24.789Z,25
2019-01-24T11:54:24.809Z,25
2019-01-24T11:55:26.154Z,25
2019-01-24T11:56:24.768Z,25
2019-01-24T11:57:24.804Z,25
2019-01-24T11:58:24.821Z,25
2019-01-24T11:59:24.835Z,25
2019-01-24T12:00:24.773Z,25
2019-01-24T12:01:26.225Z,25
2019-01-24T12:08:49.754Z,20
2019-01-24T12:09:02.530Z,20
2019-01-24T12:10:02.391Z,20
2019-01-24T12:11:02.297Z,20
2019-01-24T12:12:02.461Z,20
2019-01-24T12:13:02.389Z,20
2019-01-24T12:14:02.662Z,20
2019-01-24T12:15:02.447Z,20
2019-01-24T12:16:02.477Z,20
2019-01-24T12:17:02.336Z,20
2019-01-24T12:18:02.323Z,20
2019-01-24T12:19:02.484Z,20
2019-01-24T12:20:02.908Z,20
2019-01-24T12:21:02.391Z,20
2019-01-24T12:22:02.427Z,20
2019-01-24T12:23:02.400Z,20
2019-01-24T12:24:02.465Z,20
2019-01-24T12:25:02.866Z,20
2019-01-24T12:26:15.609Z,20
2019-01-24T12:27:02.367Z,20
2019-01-24T12:28:02.393Z,20
2019-01-24T12:29:02.307Z,20
2019-01-24T12:30:02.546Z,20
2019-01-24T12:31:02.439Z,15
2019-01-24T12:32:10.567Z,15
2019-01-24T12:33:02.371Z,15
2019-01-24T12:34:02.371Z,15
2019-01-24T12:35:02.870Z,15
2019-01-24T12:36:02.296Z,15
2019-01-24T12:37:02.348Z,15
2019-01-24T12:38:04.686Z,15
2019-01-24T12:39:02.476Z,15
2019-01-24T12:40:02.638Z,15
2019-01-24T12:41:02.387Z,15
2019-01-24T12:42:02.369Z,15
2019-01-24T12:43:02.440Z,15
2019-01-24T12:44:02.642Z,15
2019-01-24T12:45:02.604Z,20
2019-01-24T12:46:02.403Z,20
2019-01-24T12:47:02.469Z,20
2019-01-24T12:48:02.373Z,20
2019-01-24T12:49:02.490Z,20
2019-01-24T12:50:05.320Z,20
2019-01-24T12:51:02.533Z,20
2019-01-24T12:52:02.558Z,20
2019-01-24T12:53:02.716Z,15
2019-01-24T12:54:03.365Z,15
2019-01-24T12:55:02.775Z,15
2019-01-24T12:56:05.287Z,15
2019-01-24T12:57:02.608Z,15
2019-01-24T12:58:02.623Z,15
2019-01-24T12:59:02.541Z,15
2019-01-24T13:00:03.105Z,15
2019-01-24T13:01:02.380Z,15
2019-01-24T13:02:03.681Z,15
2019-01-24T13:03:02.617Z,15
2019-01-24T13:04:02.397Z,15
2019-01-24T13:05:02.560Z,15
2019-01-24T13:06:02.415Z,15
2019-01-24T13:07:02.572Z,20
2019-01-24T13:08:04.887Z,20
2019-01-24T13:09:02.511Z,20
2019-01-24T13:10:02.902Z,20
2019-01-24T13:11:02.351Z,20
2019-01-24T13:12:02.450Z,20
2019-01-24T13:13:02.498Z,20
2019-01-24T13:14:08.414Z,20
2019-01-24T13:15:02.553Z,20
2019-01-24T13:16:02.429Z,20
2019-01-24T13:17:02.480Z,20
2019-01-24T13:18:02.476Z,20
2019-01-24T13:19:02.706Z,20
2019-01-24T13:20:10.656Z,20
2019-01-24T13:21:02.573Z,20
2019-01-24T13:22:03.086Z,20
2019-01-24T13:23:02.451Z,20
2019-01-24T13:24:02.544Z,20
2019-01-24T13:25:02.685Z,20
2019-01-24T13:26:03.734Z,20
2019-01-24T13:27:02.423Z,20
2019-01-24T13:28:02.647Z,20
2019-01-24T13:29:02.720Z,20
2019-01-24T13:30:02.824Z,20
2019-01-24T13:31:04.516Z,20
2019-01-24T13:32:03.823Z,20
2019-01-24T13:33:02.502Z,20
2019-01-24T13:34:02.512Z,20
2019-01-24T13:35:02.953Z,20
2019-01-24T13:36:02.455Z,15
2019-01-24T13:37:02.488Z,15
2019-01-24T13:38:02.763Z,15
2019-01-24T13:39:02.553Z,15
2019-01-24T13:40:03.400Z,15
2019-01-24T13:41:02.498Z,15
2019-01-24T13:42:02.790Z,15
2019-01-24T13:43:02.568Z,15
2019-01-24T13:44:02.781Z,15
2019-01-24T13:45:02.872Z,15
2019-01-24T13:46:02.486Z,20
2019-01-24T13:47:02.703Z,20
2019-01-24T13:48:02.486Z,20
2019-01-24T13:49:02.475Z,20
2019-01-24T13:50:02.986Z,20
2019-01-24T13:57:30.532Z,20
2019-01-24T13:57:43.651Z,20
2019-01-24T13:58:42.919Z,20
2019-01-24T13:59:42.988Z,25
2019-01-24T14:00:43.391Z,25
2019-01-24T14:01:42.977Z,20
2019-01-24T14:02:43.437Z,20
2019-01-24T14:03:48.085Z,20
2019-01-24T14:04:43.106Z,20
2019-01-24T14:05:42.995Z,20
2019-01-24T14:06:42.974Z,20
2019-01-24T14:07:44.778Z,15
2019-01-24T14:08:44.386Z,15
2019-01-24T14:09:43.021Z,15
2019-01-24T14:10:42.976Z,15
2019-01-24T14:11:42.969Z,15
2019-01-24T14:12:43.072Z,15
2019-01-24T14:13:42.969Z,15
2019-01-24T14:14:44.447Z,15
2019-01-24T14:15:43.036Z,15
2019-01-24T14:16:44.536Z,15
2019-01-24T14:17:42.981Z,15
2019-01-24T14:18:43.182Z,15
2019-01-24T14:19:43.023Z,15
2019-01-24T14:20:44.388Z,15
2019-01-24T14:21:43.039Z,15
2019-01-24T14:22:42.792Z,15
2019-01-24T14:23:43.204Z,15
2019-01-24T14:24:43.112Z,15
2019-01-24T14:25:43.164Z,15
2019-01-24T14:26:43.434Z,15
2019-01-24T14:27:43.041Z,15
2019-01-24T14:28:43.120Z,15
2019-01-24T14:29:43.083Z,15
2019-01-24T14:30:43.156Z,15
2019-01-24T14:31:43.091Z,15
2019-01-24T14:32:43.502Z,15
2019-01-24T14:33:43.109Z,15
2019-01-24T14:34:43.081Z,15
2019-01-24T14:35:43.161Z,15
2019-01-24T14:36:43.089Z,15
2019-01-24T14:37:48.500Z,15
2019-01-24T14:38:43.451Z,15
2019-01-24T14:39:43.200Z,15
2019-01-24T14:40:43.095Z,15
2019-01-24T14:41:43.162Z,15
2019-01-24T14:42:43.075Z,15
2019-01-24T14:43:43.315Z,10
2019-01-24T14:44:45.473Z,10
2019-01-24T14:45:43.192Z,10
2019-01-24T14:46:43.127Z,10
2019-01-24T14:47:43.528Z,10
2019-01-24T14:48:43.194Z,10
2019-01-24T14:49:43.107Z,10
2019-01-24T14:50:44.358Z,10
2019-01-24T14:51:43.090Z,10
2019-01-24T14:52:43.087Z,10
2019-01-24T14:53:43.128Z,10
2019-01-24T14:54:43.090Z,10
2019-01-24T14:55:43.099Z,10
2019-01-24T14:56:43.486Z,10
2019-01-24T14:57:43.093Z,10
2019-01-24T14:58:43.069Z,10
2019-01-24T14:59:43.067Z,10
2019-01-24T15:00:43.159Z,10
2019-01-24T15:01:43.121Z,5
2019-01-24T15:02:44.317Z,5
2019-01-24T15:03:43.110Z,5
2019-01-24T15:04:43.090Z,5
2019-01-24T15:05:43.173Z,5
2019-01-24T15:06:43.178Z,5
2019-01-24T15:07:50.058Z,5
2019-01-24T15:08:44.448Z,5
2019-01-24T15:09:43.243Z,5
2019-01-24T15:10:43.227Z,5
2019-01-24T15:11:43.111Z,5
2019-01-24T15:12:43.206Z,5
2019-01-24T15:13:43.214Z,5
2019-01-24T15:14:44.485Z,5
2019-01-24T15:15:43.271Z,5
2019-01-24T15:16:43.108Z,5
2019-01-24T15:17:43.208Z,5
2019-01-24T15:18:43.159Z,0
2019-01-24T15:19:43.176Z,5
2019-01-24T15:20:43.425Z,0